Time;durP1;ratioP1;P1;durP2;ratioP2;P2;SDS_P1;SDS_P2;PMS_P1;PMS_P2;Temp;Humidity;BMP_temperature;BMP_pressure;BME280_temperature;BME280_humidity;BME280_pressure;Samples;Min_cycle;Max_cycle;Signal;HPM_P1;HPM_P2
2023/09/17 00:00:05;;;;;;;5.77;5.17;;;23.90;57.20;;;;;;4971563;28;20256;-66
2023/09/17 00:02:31;;;;;;;6.13;5.63;;;23.90;57.10;;;;;;4972316;28;20193;-66
2023/09/17 00:04:57;;;;;;;6.50;6.00;;;23.90;57.20;;;;;;4972553;28;20440;-66
2023/09/17 00:07:23;;;;;;;6.97;6.27;;;23.90;57.20;;;;;;4972273;28;20935;-66
2023/09/17 00:09:49;;;;;;;6.83;6.23;;;23.90;57.10;;;;;;4972231;28;20185;-65
2023/09/17 00:12:15;;;;;;;6.10;5.50;;;23.90;57.10;;;;;;4972055;28;20217;-66
2023/09/17 00:14:41;;;;;;;6.40;5.80;;;23.90;57.10;;;;;;4972243;28;20393;-65
2023/09/17 00:17:06;;;;;;;6.53;5.97;;;23.90;57.10;;;;;;4972044;28;20206;-66
2023/09/17 00:19:32;;;;;;;6.37;5.77;;;23.90;57.10;;;;;;4970818;28;20227;-66
2023/09/17 00:21:58;;;;;;;6.17;5.67;;;23.90;57.10;;;;;;4972355;28;20849;-65
2023/09/17 00:24:24;;;;;;;6.17;5.57;;;23.90;57.10;;;;;;4972359;28;20405;-66
2023/09/17 00:26:50;;;;;;;6.83;6.17;;;23.90;57.10;;;;;;4972078;28;20184;-66
2023/09/17 00:29:16;;;;;;;6.43;5.80;;;23.90;57.10;;;;;;4972098;28;20440;-66
2023/09/17 00:31:42;;;;;;;5.97;5.47;;;23.90;57.10;;;;;;4971902;28;20276;-66
2023/09/17 00:34:07;;;;;;;6.83;5.00;;;23.90;57.10;;;;;;4971991;28;20672;-66
2023/09/17 00:36:33;;;;;;;6.57;5.97;;;23.90;57.10;;;;;;4971878;28;20448;-66
2023/09/17 00:38:58;;;;;;;5.73;5.13;;;23.90;57.10;;;;;;4972007;28;20170;-66
2023/09/17 00:41:24;;;;;;;5.73;5.20;;;23.90;57.20;;;;;;4971903;28;20209;-64
2023/09/17 00:43:49;;;;;;;8.73;5.60;;;23.90;57.10;;;;;;4971919;28;20188;-66
2023/09/17 00:46:15;;;;;;;6.10;5.50;;;23.90;57.20;;;;;;4971844;28;20189;-66
2023/09/17 00:48:42;;;;;;;5.47;4.97;;;23.90;57.10;;;;;;4975755;28;20230;-66
2023/09/17 00:51:08;;;;;;;6.20;5.60;;;23.90;57.10;;;;;;4975622;28;20178;-66
2023/09/17 00:53:34;;;;;;;4.90;4.50;;;23.90;57.70;;;;;;4975654;28;20464;-65
2023/09/17 00:56:01;;;;;;;5.70;5.20;;;23.90;57.10;;;;;;4975512;28;20829;-66
2023/09/17 00:58:29;;;;;;;5.23;4.73;;;23.90;57.70;;;;;;4975779;28;20788;-66
2023/09/17 01:00:58;;;;;;;5.50;5.10;;;23.90;57.10;;;;;;4975507;28;21136;-66
2023/09/17 01:03:24;;;;;;;5.97;5.33;;;23.90;57.10;;;;;;4975373;28;20924;-66
2023/09/17 01:05:51;;;;;;;7.10;5.40;;;23.90;57.10;;;;;;4975497;28;20932;-66
2023/09/17 01:08:17;;;;;;;5.27;4.77;;;23.90;57.70;;;;;;4975356;28;20412;-66
2023/09/17 01:10:43;;;;;;;6.97;5.03;;;23.90;57.10;;;;;;4975321;28;20467;-66
2023/09/17 01:13:09;;;;;;;4.73;4.33;;;23.90;57.10;;;;;;4975152;28;20448;-65
2023/09/17 01:15:35;;;;;;;5.93;5.33;;;23.90;57.10;;;;;;4975197;28;20205;-65
2023/09/17 01:18:05;;;;;;;5.93;5.43;;;23.90;57.10;;;;;;4975132;28;20452;-66
2023/09/17 01:21:05;;;;;;;6.60;5.03;;;23.90;57.10;;;;;;4975202;28;20702;-66
2023/09/17 01:23:41;;;;;;;6.63;5.90;;;23.90;57.10;;;;;;4974139;28;20927;-64
2023/09/17 01:26:16;;;;;;;7.10;6.40;;;23.80;57.00;;;;;;4975127;28;21139;-65
2023/09/17 01:28:43;;;;;;;6.40;5.80;;;23.90;57.20;;;;;;4975003;28;20412;-66
2023/09/17 01:31:09;;;;;;;7.17;6.57;;;23.90;57.10;;;;;;4974904;28;20417;-66
2023/09/17 01:33:35;;;;;;;7.60;5.90;;;23.90;57.20;;;;;;4974901;28;20424;-64
2023/09/17 01:36:13;;;;;;;8.70;7.47;;;23.80;57.00;;;;;;4974865;28;20424;-66
2023/09/17 01:38:49;;;;;;;7.33;6.73;;;23.80;57.00;;;;;;4974962;28;20385;-66
2023/09/17 01:41:16;;;;;;;6.83;6.20;;;23.80;57.00;;;;;;4975013;28;20491;-66
2023/09/17 01:43:43;;;;;;;7.50;6.80;;;23.90;57.10;;;;;;4974846;28;20758;-66
2023/09/17 01:46:09;;;;;;;6.80;6.20;;;23.80;57.00;;;;;;4974724;28;20932;-66
2023/09/17 01:48:36;;;;;;;7.60;6.30;;;23.80;57.00;;;;;;4974826;28;20484;-66
2023/09/17 01:51:03;;;;;;;7.07;6.47;;;23.90;57.10;;;;;;4974543;28;20733;-66
2023/09/17 01:53:29;;;;;;;7.63;6.80;;;23.80;57.00;;;;;;4974580;28;20417;-66
2023/09/17 01:55:56;;;;;;;7.20;6.50;;;23.90;57.10;;;;;;4974455;28;20493;-66
2023/09/17 01:58:25;;;;;;;6.53;6.03;;;23.80;57.00;;;;;;4973317;28;20178;-66
2023/09/17 02:00:52;;;;;;;7.00;6.20;;;23.90;57.10;;;;;;4974447;28;20440;-66
2023/09/17 02:03:18;;;;;;;8.37;6.40;;;23.90;57.10;;;;;;4973000;28;20584;-66
2023/09/17 02:05:44;;;;;;;7.27;6.63;;;23.80;57.10;;;;;;4974370;28;20425;-66
2023/09/17 02:08:10;;;;;;;6.37;5.70;;;23.80;57.10;;;;;;4972997;28;21087;-65
2023/09/17 02:10:35;;;;;;;6.50;5.90;;;23.80;57.00;;;;;;4974266;28;20182;-66
2023/09/17 02:13:01;;;;;;;6.20;5.70;;;23.80;57.00;;;;;;4974073;28;20217;-66
2023/09/17 02:15:27;;;;;;;8.60;5.80;;;23.80;57.10;;;;;;4974537;28;20656;-66
2023/09/17 02:17:52;;;;;;;6.03;5.53;;;23.80;57.00;;;;;;4974312;28;20206;-65
2023/09/17 02:20:18;;;;;;;5.53;4.97;;;23.80;57.10;;;;;;4974129;28;20911;-66
2023/09/17 02:22:44;;;;;;;5.77;5.23;;;23.80;57.10;;;;;;4974079;28;20206;-63
2023/09/17 02:25:10;;;;;;;6.80;6.20;;;23.80;57.10;;;;;;4974026;28;20496;-65
2023/09/17 02:27:38;;;;;;;6.00;4.73;;;23.80;57.10;;;;;;4974034;28;20224;-66
2023/09/17 02:30:04;;;;;;;5.83;5.20;;;23.80;57.10;;;;;;4973937;28;20800;-65
2023/09/17 02:32:30;;;;;;;7.00;5.47;;;23.80;57.20;;;;;;4973801;28;20433;-65
2023/09/17 02:34:57;;;;;;;5.23;4.83;;;23.80;57.20;;;;;;4973870;28;20425;-66
2023/09/17 02:37:23;;;;;;;5.17;4.77;;;23.80;57.20;;;;;;4973721;28;20539;-65
2023/09/17 02:39:48;;;;;;;5.53;5.03;;;23.80;57.20;;;;;;4973759;28;20409;-66
2023/09/17 02:42:14;;;;;;;5.50;5.00;;;23.80;57.20;;;;;;4973711;28;20782;-66
2023/09/17 02:44:40;;;;;;;5.63;4.90;;;23.80;57.20;;;;;;4973665;28;20253;-66
2023/09/17 02:47:06;;;;;;;5.43;5.00;;;23.80;57.20;;;;;;4973588;28;20176;-66
2023/09/17 02:49:31;;;;;;;5.30;4.80;;;23.70;57.10;;;;;;4973633;28;20236;-66
2023/09/17 02:51:57;;;;;;;5.30;4.80;;;23.70;57.10;;;;;;4973423;28;20221;-66
2023/09/17 02:54:24;;;;;;;6.07;5.30;;;23.80;57.20;;;;;;4973516;28;20174;-66
2023/09/17 02:56:49;;;;;;;5.30;4.80;;;23.80;57.20;;;;;;4973380;28;20552;-65
2023/09/17 02:59:15;;;;;;;5.43;4.80;;;23.80;57.20;;;;;;4972836;28;20492;-63
2023/09/17 03:01:41;;;;;;;5.70;5.20;;;23.80;57.20;;;;;;4973199;28;20555;-65
2023/09/17 03:04:07;;;;;;;6.87;5.77;;;23.80;57.20;;;;;;4973279;28;20459;-66
2023/09/17 03:06:36;;;;;;;5.80;5.30;;;23.70;57.10;;;;;;4973275;28;20182;-66
2023/09/17 03:09:07;;;;;;;5.40;4.90;;;23.80;57.20;;;;;;4973184;28;20174;-66
2023/09/17 03:11:33;;;;;;;4.97;4.47;;;23.70;57.10;;;;;;4972936;28;20796;-66
2023/09/17 03:13:58;;;;;;;5.20;4.70;;;23.70;57.10;;;;;;4973013;28;20440;-66
2023/09/17 03:16:24;;;;;;;5.63;5.13;;;23.80;57.10;;;;;;4973039;28;20220;-67
2023/09/17 03:18:50;;;;;;;5.07;4.57;;;23.80;57.10;;;;;;4973123;28;20173;-67
2023/09/17 03:21:16;;;;;;;7.53;4.97;;;23.80;57.10;;;;;;4972881;28;20173;-66
2023/09/17 03:23:42;;;;;;;5.60;5.10;;;23.80;57.10;;;;;;4972947;28;20233;-66
2023/09/17 03:26:10;;;;;;;6.00;5.27;;;23.80;57.10;;;;;;4972833;28;20417;-66
2023/09/17 03:28:35;;;;;;;6.10;5.60;;;23.80;57.10;;;;;;4972811;28;20192;-67
2023/09/17 03:31:01;;;;;;;5.83;5.13;;;23.80;57.10;;;;;;4972764;28;20960;-66
2023/09/17 03:33:27;;;;;;;4.60;4.20;;;23.80;57.20;;;;;;4972770;28;20174;-66
2023/09/17 03:35:54;;;;;;;5.83;5.27;;;23.80;57.10;;;;;;4972644;28;20182;-66
2023/09/17 03:38:20;;;;;;;4.53;4.13;;;23.80;57.10;;;;;;4971320;28;20413;-66
2023/09/17 03:40:46;;;;;;;4.73;4.23;;;23.80;57.10;;;;;;4972680;28;20444;-66
2023/09/17 03:43:11;;;;;;;6.17;5.30;;;23.80;57.20;;;;;;4972559;28;20452;-67
2023/09/17 03:45:37;;;;;;;4.47;4.13;;;23.80;57.20;;;;;;4972548;28;20660;-66
2023/09/17 03:48:04;;;;;;;4.67;4.27;;;23.80;57.20;;;;;;4972486;28;20181;-66
2023/09/17 03:50:30;;;;;;;5.20;4.03;;;23.80;57.20;;;;;;4972471;28;20584;-66
2023/09/17 03:52:58;;;;;;;4.80;4.33;;;23.80;57.20;;;;;;4972403;28;20436;-66
2023/09/17 03:55:24;;;;;;;5.00;4.60;;;23.80;57.20;;;;;;4972387;28;20444;-66
2023/09/17 03:57:51;;;;;;;5.00;4.60;;;23.80;57.10;;;;;;4972323;28;20456;-66
2023/09/17 04:00:17;;;;;;;4.83;4.43;;;23.80;57.20;;;;;;4972382;28;20444;-66
2023/09/17 04:02:44;;;;;;;5.00;4.50;;;23.80;57.20;;;;;;4972335;28;20830;-66
2023/09/17 04:05:12;;;;;;;5.43;4.40;;;23.70;57.10;;;;;;4972214;28;20903;-66
2023/09/17 04:07:41;;;;;;;5.17;4.67;;;23.80;57.20;;;;;;4972287;28;20515;-67
2023/09/17 04:10:07;;;;;;;4.83;4.47;;;23.80;57.20;;;;;;4970907;28;20429;-66
2023/09/17 04:12:37;;;;;;;4.80;4.47;;;23.80;57.20;;;;;;4970643;28;20469;-66
2023/09/17 04:15:08;;;;;;;5.67;4.60;;;23.70;57.10;;;;;;4972155;28;20457;-66
2023/09/17 04:17:33;;;;;;;6.10;4.17;;;23.70;57.10;;;;;;4972161;28;20444;-66
2023/09/17 04:19:59;;;;;;;4.90;4.47;;;23.70;57.10;;;;;;4972146;28;20448;-66
2023/09/17 04:22:24;;;;;;;5.30;4.80;;;23.70;57.10;;;;;;4971376;28;20214;-66
2023/09/17 04:24:50;;;;;;;5.20;4.70;;;23.70;57.20;;;;;;4971969;28;20176;-66
2023/09/17 04:27:16;;;;;;;4.80;4.33;;;23.70;57.20;;;;;;4972006;28;20198;-66
2023/09/17 04:29:42;;;;;;;4.93;4.53;;;23.70;57.20;;;;;;4971985;28;20185;-67
2023/09/17 04:32:07;;;;;;;5.30;4.80;;;23.70;57.10;;;;;;4972022;28;20564;-66
2023/09/17 04:34:33;;;;;;;6.27;5.23;;;23.70;57.20;;;;;;4972006;28;20185;-66
2023/09/17 04:36:59;;;;;;;5.10;4.70;;;23.70;57.20;;;;;;4970542;28;20201;-66
2023/09/17 04:39:25;;;;;;;6.43;5.10;;;23.70;57.20;;;;;;4971939;28;20178;-66
2023/09/17 04:41:51;;;;;;;5.50;4.53;;;23.70;57.20;;;;;;4970852;28;20455;-67
2023/09/17 04:44:16;;;;;;;5.30;4.80;;;23.70;57.20;;;;;;4971778;28;20178;-66
2023/09/17 04:46:47;;;;;;;6.00;5.50;;;23.70;57.10;;;;;;4971892;28;20224;-66
2023/09/17 04:49:13;;;;;;;5.17;4.67;;;23.70;57.20;;;;;;4971990;28;20577;-67
2023/09/17 04:51:39;;;;;;;5.50;4.90;;;23.70;57.20;;;;;;4972082;28;20432;-66
2023/09/17 04:54:05;;;;;;;5.10;4.70;;;23.70;57.20;;;;;;4971805;28;20178;-66
2023/09/17 04:56:31;;;;;;;5.07;4.57;;;23.70;57.10;;;;;;4971732;28;20198;-66
2023/09/17 04:59:00;;;;;;;5.53;4.97;;;23.70;57.10;;;;;;4971764;28;20456;-66
2023/09/17 05:01:26;;;;;;;5.00;4.50;;;23.70;57.10;;;;;;4971654;28;20182;-66
2023/09/17 05:03:52;;;;;;;7.80;5.10;;;23.70;57.10;;;;;;4971681;28;20437;-66
2023/09/17 05:06:18;;;;;;;5.67;5.07;;;23.70;57.10;;;;;;4971739;28;20456;-66
2023/09/17 05:08:43;;;;;;;5.87;4.90;;;23.70;57.10;;;;;;4971932;28;20189;-65
2023/09/17 05:11:10;;;;;;;23.23;5.83;;;23.70;57.10;;;;;;4971739;28;20661;-66
2023/09/17 05:13:35;;;;;;;5.20;4.80;;;23.70;57.10;;;;;;4971590;28;20617;-66
2023/09/17 05:16:02;;;;;;;5.23;4.80;;;23.70;57.10;;;;;;4971518;28;20421;-66
2023/09/17 05:18:27;;;;;;;8.63;5.33;;;23.70;57.10;;;;;;4971561;28;20220;-66
2023/09/17 05:20:54;;;;;;;5.20;4.70;;;23.70;57.10;;;;;;4971627;28;20970;-66
2023/09/17 05:23:22;;;;;;;5.40;4.90;;;23.70;57.10;;;;;;4971513;28;20201;-66
2023/09/17 05:25:48;;;;;;;5.60;4.40;;;23.70;57.10;;;;;;4971555;28;20419;-66
2023/09/17 05:28:14;;;;;;;5.40;5.00;;;23.70;57.10;;;;;;4971841;28;20931;-66
2023/09/17 05:30:41;;;;;;;5.07;4.57;;;23.70;57.10;;;;;;4971470;28;20178;-66
2023/09/17 05:33:07;;;;;;;6.47;4.93;;;23.60;57.10;;;;;;4972620;28;20448;-66
2023/09/17 05:35:36;;;;;;;5.50;5.00;;;23.70;57.10;;;;;;4974955;28;20404;-66
2023/09/17 05:38:02;;;;;;;4.70;4.23;;;23.70;57.10;;;;;;4974882;28;20974;-66
2023/09/17 05:40:28;;;;;;;7.07;5.57;;;23.70;57.10;;;;;;4974820;28;20912;-66
2023/09/17 05:42:54;;;;;;;5.27;4.87;;;23.70;57.10;;;;;;4974741;28;20504;-66
2023/09/17 05:45:19;;;;;;;4.67;4.27;;;23.70;57.20;;;;;;4974732;28;20170;-66
2023/09/17 05:47:45;;;;;;;5.67;5.03;;;23.70;57.20;;;;;;4974699;28;20178;-66
2023/09/17 05:50:11;;;;;;;5.13;4.70;;;23.70;57.70;;;;;;4974693;28;20188;-66
2023/09/17 05:52:37;;;;;;;5.33;4.83;;;23.70;57.20;;;;;;4974829;28;20629;-66
2023/09/17 05:55:04;;;;;;;5.50;4.83;;;23.70;57.20;;;;;;4974636;28;20952;-67
2023/09/17 05:57:30;;;;;;;5.73;5.00;;;23.70;57.20;;;;;;4974429;28;20556;-67
2023/09/17 05:59:56;;;;;;;5.83;5.17;;;23.70;57.30;;;;;;4974445;28;20409;-66
2023/09/17 06:02:21;;;;;;;5.13;4.70;;;23.70;57.30;;;;;;4974397;28;20496;-67
2023/09/17 06:04:51;;;;;;;6.07;5.33;;;23.70;57.20;;;;;;4974455;28;20174;-66
2023/09/17 06:07:16;;;;;;;5.20;4.70;;;23.70;57.30;;;;;;4974104;28;20193;-66
2023/09/17 06:09:42;;;;;;;8.33;5.00;;;23.70;57.30;;;;;;4974310;28;20417;-66
2023/09/17 06:12:09;;;;;;;7.60;5.30;;;23.70;57.30;;;;;;4974380;28;20706;-66
2023/09/17 06:14:35;;;;;;;5.73;4.40;;;23.70;57.30;;;;;;4974301;28;20228;-67
2023/09/17 06:17:00;;;;;;;5.10;4.70;;;23.70;57.30;;;;;;4974084;28;20445;-66
2023/09/17 06:19:27;;;;;;;5.50;4.93;;;23.70;57.30;;;;;;4974199;28;20181;-66
2023/09/17 06:21:53;;;;;;;5.77;5.13;;;23.70;57.30;;;;;;4973986;28;20240;-66
2023/09/17 06:24:19;;;;;;;6.07;5.20;;;23.70;57.30;;;;;;4974048;28;20405;-67
2023/09/17 06:26:44;;;;;;;6.53;4.50;;;23.70;57.30;;;;;;4972757;28;20882;-66
2023/09/17 06:29:10;;;;;;;9.30;4.90;;;23.70;57.30;;;;;;4973974;28;20169;-66
2023/09/17 06:31:36;;;;;;;7.40;4.80;;;23.70;57.40;;;;;;4974208;28;20205;-66
2023/09/17 06:34:01;;;;;;;5.80;5.20;;;23.70;57.60;;;;;;4973183;28;20236;-66
2023/09/17 06:36:27;;;;;;;4.90;4.50;;;23.70;57.40;;;;;;4973567;28;20209;-66
2023/09/17 06:38:53;;;;;;;6.47;4.70;;;23.70;57.40;;;;;;4973813;28;20256;-66
2023/09/17 06:41:19;;;;;;;5.10;4.63;;;23.70;57.40;;;;;;4973638;28;20416;-67
2023/09/17 06:43:46;;;;;;;4.70;4.30;;;23.70;57.40;;;;;;4973727;28;20984;-66
2023/09/17 06:46:11;;;;;;;5.37;4.83;;;23.70;57.50;;;;;;4973095;28;20432;-67
2023/09/17 06:48:37;;;;;;;5.60;5.10;;;23.70;57.50;;;;;;4973573;28;20409;-66
2023/09/17 06:51:03;;;;;;;6.60;5.13;;;23.70;57.50;;;;;;4973495;28;20177;-66
2023/09/17 06:53:28;;;;;;;5.63;5.13;;;23.70;57.60;;;;;;4973553;28;20174;-66
2023/09/17 06:55:54;;;;;;;5.17;4.07;;;23.70;57.50;;;;;;4973442;28;20653;-66
2023/09/17 06:58:20;;;;;;;5.87;5.30;;;23.80;57.70;;;;;;4973360;28;20237;-66
2023/09/17 07:00:47;;;;;;;5.67;4.93;;;23.70;57.50;;;;;;4973367;28;20253;-66
2023/09/17 07:03:13;;;;;;;5.67;5.10;;;23.70;57.50;;;;;;4973531;28;20436;-66
2023/09/17 07:05:39;;;;;;;5.70;5.20;;;23.70;57.50;;;;;;4973278;28;20416;-66
2023/09/17 07:08:05;;;;;;;4.70;4.30;;;23.70;57.70;;;;;;4973271;28;20174;-66
2023/09/17 07:10:32;;;;;;;6.43;5.83;;;23.70;57.70;;;;;;4973484;28;20825;-68
2023/09/17 07:12:57;;;;;;;7.13;5.50;;;23.70;57.80;;;;;;4973117;28;20256;-67
2023/09/17 07:15:25;;;;;;;5.90;5.23;;;23.70;57.70;;;;;;4972895;28;20942;-67
2023/09/17 07:17:52;;;;;;;6.93;5.00;;;23.70;57.90;;;;;;4973093;28;20201;-67
2023/09/17 07:20:19;;;;;;;7.47;5.33;;;23.70;57.80;;;;;;4972092;28;20409;-67
2023/09/17 07:22:46;;;;;;;6.20;5.47;;;23.80;57.90;;;;;;4971546;28;20819;-67
2023/09/17 07:25:12;;;;;;;5.87;5.33;;;23.70;57.80;;;;;;4972936;28;20444;-67
2023/09/17 07:27:39;;;;;;;5.83;4.77;;;23.70;57.70;;;;;;4972833;28;20479;-67
2023/09/17 07:30:05;;;;;;;5.63;5.13;;;23.70;57.90;;;;;;4972766;28;20562;-66
2023/09/17 07:32:31;;;;;;;6.03;5.53;;;23.70;57.90;;;;;;4972705;28;20491;-67
2023/09/17 07:34:57;;;;;;;5.37;4.87;;;23.70;57.90;;;;;;4972792;28;20431;-67
2023/09/17 07:37:23;;;;;;;8.43;5.30;;;23.70;57.80;;;;;;4972595;28;20469;-67
2023/09/17 07:39:56;;;;;;;6.77;5.70;;;23.70;57.90;;;;;;4972682;28;20173;-66
2023/09/17 07:42:22;;;;;;;5.40;4.90;;;23.70;58.00;;;;;;4972698;28;20472;-67
2023/09/17 07:44:48;;;;;;;6.13;5.53;;;23.70;57.90;;;;;;4972938;28;20881;-67
2023/09/17 07:47:13;;;;;;;6.53;5.10;;;23.70;57.90;;;;;;4972578;28;20516;-66
2023/09/17 07:49:39;;;;;;;5.60;4.40;;;23.70;57.90;;;;;;4972497;28;20256;-67
2023/09/17 07:52:06;;;;;;;5.90;5.07;;;23.70;57.80;;;;;;4972405;28;20293;-65
2023/09/17 07:54:37;;;;;;;5.67;5.17;;;23.80;58.50;;;;;;4972426;28;20173;-67
2023/09/17 07:57:04;;;;;;;5.67;5.17;;;23.70;57.80;;;;;;4971474;28;20453;-67
2023/09/17 07:59:30;;;;;;;5.47;4.90;;;23.70;57.90;;;;;;4972380;28;20504;-67
2023/09/17 08:01:56;;;;;;;5.30;4.80;;;23.70;57.90;;;;;;4972293;28;20812;-66
2023/09/17 08:04:22;;;;;;;4.73;4.33;;;23.80;57.90;;;;;;4972216;28;20409;-66
2023/09/17 08:06:49;;;;;;;5.50;5.00;;;23.80;58.00;;;;;;4972194;28;20793;-67
2023/09/17 08:09:15;;;;;;;5.40;4.33;;;23.70;58.00;;;;;;4972174;28;20178;-67
2023/09/17 08:11:42;;;;;;;5.57;5.00;;;23.80;58.00;;;;;;4972148;28;20444;-67
2023/09/17 08:14:08;;;;;;;5.63;4.53;;;23.80;58.00;;;;;;4972135;28;20508;-67
2023/09/17 08:16:34;;;;;;;5.40;4.73;;;23.80;58.00;;;;;;4972017;28;20836;-67
2023/09/17 08:19:00;;;;;;;4.63;4.23;;;23.80;58.00;;;;;;4972091;28;20412;-66
2023/09/17 08:21:27;;;;;;;5.00;4.60;;;23.80;58.00;;;;;;4971892;28;20441;-66
2023/09/17 08:23:52;;;;;;;4.70;4.30;;;23.80;58.00;;;;;;4972005;28;20888;-66
2023/09/17 08:26:18;;;;;;;4.70;4.37;;;23.80;58.00;;;;;;4971920;28;20428;-65
2023/09/17 08:28:45;;;;;;;5.20;4.70;;;23.80;58.60;;;;;;4971976;28;20174;-67
2023/09/17 08:31:11;;;;;;;4.93;4.53;;;23.80;58.10;;;;;;4971898;28;20412;-67
2023/09/17 08:33:37;;;;;;;4.60;4.20;;;23.80;58.10;;;;;;4971994;28;20451;-67
2023/09/17 08:36:02;;;;;;;4.70;4.30;;;23.80;58.00;;;;;;4971865;28;20480;-67
2023/09/17 08:38:29;;;;;;;4.30;3.90;;;23.80;58.00;;;;;;4970966;28;20177;-67
2023/09/17 08:40:57;;;;;;;5.47;4.97;;;23.80;58.60;;;;;;4971599;28;20198;-67
2023/09/17 08:43:24;;;;;;;5.03;4.53;;;23.80;58.00;;;;;;4971594;28;20448;-67
2023/09/17 08:45:50;;;;;;;5.00;4.50;;;23.80;58.00;;;;;;4971438;28;20519;-67
2023/09/17 08:48:17;;;;;;;4.97;4.57;;;23.80;58.00;;;;;;4971638;28;20417;-67
2023/09/17 08:50:49;;;;;;;4.47;4.07;;;23.90;58.10;;;;;;4971757;28;20847;-65
2023/09/17 08:53:19;;;;;;;4.67;4.27;;;23.80;58.00;;;;;;4971746;28;20807;-67
2023/09/17 08:55:47;;;;;;;5.27;4.77;;;23.80;58.00;;;;;;4971781;28;20398;-66
2023/09/17 08:58:17;;;;;;;4.90;4.17;;;23.80;58.00;;;;;;4970904;28;20492;-67
2023/09/17 09:00:49;;;;;;;4.87;4.47;;;23.90;58.10;;;;;;4971492;28;21041;-66
2023/09/17 09:03:17;;;;;;;5.27;4.77;;;23.90;58.00;;;;;;4969728;28;20437;-66
2023/09/17 09:05:46;;;;;;;5.00;4.43;;;23.90;58.60;;;;;;4969888;28;20413;-67
2023/09/17 09:08:13;;;;;;;4.90;4.40;;;23.90;58.00;;;;;;4971225;28;20527;-66
2023/09/17 09:10:39;;;;;;;5.50;5.00;;;23.90;57.90;;;;;;4973327;28;20915;-66
2023/09/17 09:13:04;;;;;;;5.23;4.73;;;23.90;57.90;;;;;;4974495;28;20468;-66
2023/09/17 09:15:30;;;;;;;4.50;4.10;;;23.90;58.00;;;;;;4975207;28;20184;-67
2023/09/17 09:17:56;;;;;;;5.40;4.90;;;23.90;57.90;;;;;;4975110;28;20209;-67
2023/09/17 09:20:22;;;;;;;4.87;4.37;;;23.90;58.00;;;;;;4975133;28;20182;-66
2023/09/17 09:22:48;;;;;;;4.77;4.37;;;23.90;58.00;;;;;;4975070;28;20248;-67
2023/09/17 09:25:15;;;;;;;5.17;4.67;;;23.90;57.80;;;;;;4975122;28;20467;-66
2023/09/17 09:27:42;;;;;;;4.77;4.33;;;24.00;58.00;;;;;;4975053;28;20417;-65
2023/09/17 09:30:09;;;;;;;5.23;4.73;;;23.90;57.80;;;;;;4974867;28;20413;-67
2023/09/17 09:32:36;;;;;;;4.57;4.17;;;23.90;57.80;;;;;;4974902;28;20441;-67
2023/09/17 09:35:02;;;;;;;4.10;3.80;;;24.00;58.00;;;;;;4974943;28;20412;-67
2023/09/17 09:37:28;;;;;;;4.73;4.33;;;24.00;58.00;;;;;;4974777;28;20456;-66
2023/09/17 09:39:54;;;;;;;5.53;4.60;;;24.00;58.00;;;;;;4974780;28;20409;-67
2023/09/17 09:42:21;;;;;;;5.37;4.83;;;24.00;57.80;;;;;;4974682;28;20472;-67
2023/09/17 09:44:47;;;;;;;5.57;5.07;;;24.00;57.90;;;;;;4974774;28;20582;-67
2023/09/17 09:47:14;;;;;;;4.57;4.17;;;24.00;57.80;;;;;;4974630;28;20421;-66
2023/09/17 09:49:41;;;;;;;4.73;4.33;;;24.00;58.00;;;;;;4975177;28;20606;-67
2023/09/17 09:52:07;;;;;;;4.80;4.40;;;24.00;58.00;;;;;;4974584;28;20444;-67
2023/09/17 09:54:32;;;;;;;5.60;5.10;;;24.00;58.00;;;;;;4974574;28;20433;-65
2023/09/17 09:56:58;;;;;;;5.00;4.60;;;24.00;58.00;;;;;;4974483;28;20212;-67
2023/09/17 09:59:25;;;;;;;4.43;4.03;;;24.00;58.10;;;;;;4974484;28;20177;-67
2023/09/17 10:01:51;;;;;;;5.87;5.37;;;24.00;57.90;;;;;;4974434;28;20433;-66
2023/09/17 10:04:18;;;;;;;4.53;4.13;;;24.00;57.90;;;;;;4972998;28;20771;-67
2023/09/17 10:06:45;;;;;;;5.57;5.00;;;24.00;58.00;;;;;;4974260;28;20188;-67
2023/09/17 10:09:13;;;;;;;5.50;5.07;;;24.10;58.00;;;;;;4974302;28;20420;-67
2023/09/17 10:11:38;;;;;;;5.13;4.70;;;24.10;58.10;;;;;;4974010;28;20444;-66
2023/09/17 10:14:06;;;;;;;5.37;4.87;;;24.10;58.10;;;;;;4974193;28;20424;-66
2023/09/17 10:16:33;;;;;;;5.30;4.80;;;24.10;58.20;;;;;;4972646;28;20232;-67
2023/09/17 10:19:00;;;;;;;7.10;4.40;;;24.10;58.20;;;;;;4972213;28;20456;-66
2023/09/17 10:21:27;;;;;;;5.00;4.60;;;24.10;58.20;;;;;;4972262;28;20433;-67
2023/09/17 10:23:57;;;;;;;5.10;4.60;;;24.10;58.30;;;;;;4974367;28;20433;-67
2023/09/17 10:26:24;;;;;;;4.90;4.50;;;24.10;58.20;;;;;;4974016;28;20542;-66
2023/09/17 10:28:54;;;;;;;4.80;4.40;;;24.10;58.10;;;;;;4973985;28;20405;-66
2023/09/17 10:31:22;;;;;;;4.33;3.93;;;24.10;58.10;;;;;;4973639;28;20416;-66
2023/09/17 10:33:49;;;;;;;5.10;4.70;;;24.10;58.20;;;;;;4973889;28;20413;-66
2023/09/17 10:36:16;;;;;;;6.27;5.50;;;24.10;58.40;;;;;;4973686;28;20417;-67
2023/09/17 10:38:43;;;;;;;4.70;4.30;;;24.10;58.30;;;;;;4972335;28;20508;-66
2023/09/17 10:41:10;;;;;;;4.90;4.50;;;24.10;58.40;;;;;;4971788;28;20469;-67
2023/09/17 10:43:37;;;;;;;5.77;5.17;;;24.20;58.40;;;;;;4971862;28;20417;-66
2023/09/17 10:46:06;;;;;;;5.67;5.23;;;24.10;58.30;;;;;;4972557;28;20468;-66
2023/09/17 10:48:33;;;;;;;6.03;5.27;;;24.10;58.30;;;;;;4973525;28;20621;-67
2023/09/17 10:51:00;;;;;;;4.97;4.57;;;24.10;58.40;;;;;;4971726;28;20511;-67
2023/09/17 10:53:29;;;;;;;4.70;4.30;;;24.20;58.50;;;;;;4972977;28;20444;-67
2023/09/17 10:56:08;;;;;;;5.10;4.70;;;24.20;58.40;;;;;;4973275;28;20429;-67
2023/09/17 10:58:43;;;;;;;5.30;4.90;;;24.20;58.40;;;;;;4971940;28;20405;-67
2023/09/17 11:01:14;;;;;;;4.97;4.47;;;24.20;58.40;;;;;;4971405;28;20899;-66
2023/09/17 11:03:44;;;;;;;5.33;4.83;;;24.20;58.40;;;;;;4973647;28;20732;-66
2023/09/17 11:06:16;;;;;;;5.20;4.70;;;24.20;58.60;;;;;;4973195;28;20406;-66
2023/09/17 11:08:46;;;;;;;4.90;4.40;;;24.20;58.60;;;;;;4973206;28;20779;-67
2023/09/17 11:11:16;;;;;;;5.27;4.70;;;24.20;58.50;;;;;;4973271;28;20780;-66
2023/09/17 11:13:46;;;;;;;4.63;4.23;;;24.20;58.50;;;;;;4973061;28;20429;-67
2023/09/17 11:16:25;;;;;;;4.83;4.40;;;24.20;58.50;;;;;;4973309;28;20445;-66
2023/09/17 11:19:05;;;;;;;4.97;4.57;;;24.20;58.50;;;;;;4971614;28;20424;-67
2023/09/17 11:21:33;;;;;;;5.27;4.87;;;24.20;58.50;;;;;;4972183;28;20456;-66
2023/09/17 11:23:59;;;;;;;5.57;5.07;;;24.20;58.40;;;;;;4972702;28;20480;-67
2023/09/17 11:26:27;;;;;;;5.70;5.20;;;24.20;58.40;;;;;;4972899;28;20863;-67
2023/09/17 11:28:58;;;;;;;5.70;5.20;;;24.20;58.40;;;;;;4972682;28;20252;-66
2023/09/17 11:31:28;;;;;;;5.23;4.83;;;24.20;58.40;;;;;;4972604;28;20495;-67
2023/09/17 11:33:55;;;;;;;5.30;4.90;;;24.20;58.50;;;;;;4972531;28;20788;-67
2023/09/17 11:36:21;;;;;;;4.73;4.33;;;24.20;58.40;;;;;;4972452;28;20468;-67
2023/09/17 11:38:47;;;;;;;5.50;5.00;;;24.20;58.40;;;;;;4971136;28;20424;-64
2023/09/17 11:41:18;;;;;;;5.10;4.60;;;24.20;58.40;;;;;;4972297;28;20178;-67
2023/09/17 11:43:50;;;;;;;4.50;4.20;;;24.20;58.40;;;;;;4972455;28;20420;-66
2023/09/17 11:46:16;;;;;;;4.90;4.50;;;24.30;58.50;;;;;;4972338;28;20427;-67
2023/09/17 11:48:42;;;;;;;5.13;4.63;;;24.20;58.50;;;;;;4972386;28;20416;-67
2023/09/17 11:51:22;;;;;;;5.20;4.80;;;24.20;58.50;;;;;;4972142;28;20417;-67
2023/09/17 11:53:58;;;;;;;5.57;5.07;;;24.30;58.70;;;;;;4972368;28;20504;-67
2023/09/17 11:56:27;;;;;;;5.03;4.63;;;24.30;58.80;;;;;;4972256;28;20397;-67
2023/09/17 11:59:08;;;;;;;5.33;4.93;;;24.30;58.70;;;;;;4972325;28;20413;-67
2023/09/17 12:01:41;;;;;;;5.30;4.90;;;24.30;58.80;;;;;;4972037;28;21035;-66
2023/09/17 12:04:08;;;;;;;5.40;5.00;;;24.30;58.90;;;;;;4972076;28;20413;-67
2023/09/17 12:06:40;;;;;;;5.47;4.83;;;24.30;58.90;;;;;;4971278;28;20417;-67
2023/09/17 12:09:20;;;;;;;4.93;4.53;;;24.30;58.80;;;;;;4972005;28;20484;-66
2023/09/17 12:11:49;;;;;;;5.20;4.80;;;24.30;58.70;;;;;;4971959;28;20425;-67
2023/09/17 12:14:16;;;;;;;5.10;4.70;;;24.30;58.70;;;;;;4971860;28;20440;-66
2023/09/17 12:16:46;;;;;;;5.97;5.47;;;24.30;58.70;;;;;;4971801;28;20510;-65
2023/09/17 12:19:11;;;;;;;5.53;5.03;;;24.30;58.70;;;;;;4971834;28;20817;-67
2023/09/17 12:21:38;;;;;;;4.30;4.00;;;24.30;58.60;;;;;;4970960;28;20433;-67
2023/09/17 12:24:13;;;;;;;5.30;4.90;;;24.30;58.60;;;;;;4972136;28;20176;-67
2023/09/17 12:27:14;;;;;;;5.40;4.90;;;24.30;58.60;;;;;;4972122;28;20400;-67
2023/09/17 12:29:40;;;;;;;5.90;5.40;;;24.30;58.60;;;;;;4972065;28;20484;-66
2023/09/17 12:32:08;;;;;;;5.57;4.80;;;24.30;58.80;;;;;;4971731;28;20484;-66
2023/09/17 12:34:37;;;;;;;4.67;4.23;;;24.30;59.00;;;;;;4972194;28;21241;-67
2023/09/17 12:37:07;;;;;;;5.10;4.70;;;24.30;58.90;;;;;;4971861;28;20491;-67
2023/09/17 12:39:33;;;;;;;4.90;4.50;;;24.30;59.00;;;;;;4971893;28;20464;-67
2023/09/17 12:41:58;;;;;;;4.50;4.10;;;24.30;58.90;;;;;;4971869;28;20425;-66
2023/09/17 12:44:26;;;;;;;4.33;3.93;;;24.30;58.80;;;;;;4975307;28;20936;-67
2023/09/17 12:46:52;;;;;;;5.10;4.70;;;24.40;58.80;;;;;;4976072;28;20177;-67